Terminal Aerodrome Forecast
Issued by NWS

Home | Current Version | Previous Version | Text Only | Print | Product List | Glossary On
Versions: 1 2 3 4 5 6 7 8 9 10 11 12
000
FTUS46 KPDT 130500
TAFALW
TAF
KALW 130521Z 1306/1406 12005KT P6SM SCT250
     FM131700 33008KT P6SM BKN250
     FM140200 34008KT P6SM BKN120=

USA.gov is the U.S. government's official web portal to all federal, state and local government web resources and services.